Ride Results

Tom Quilty Gold Cup (11-06-1983)
Ride distance: 160.0 km

Outcomes - Tom Quilty Gold Cup (11-06-1983)
Division No. of Entries Retired / DNE Completed Withdrawn Ineligible V/O Percentage Completed
OP 51 - 22 2 1 26 43.14%
LW 3 - 1 - - 2 33.33%
Totals 54 - 23 2 1 28 42.59%
Results - Tom Quilty Gold Cup (11-06-1983)
No. Rider Horse Place Time Leg Speeds Total
Km/Hr
H/R bpm
Open
42 Peter Cole Chip Chase Sadaqa 1 11:23:33 19.4, 13.7, 13.7, 10.4 14.04 34, 40, 44, 46, 44 (Avg:43)
2 Kay Black Hargee 2 12:03:48 17.7, 12.5, 10.7, 13.5 13.26 34, 40, 54, 47, 48 (Avg:47)
22 Brian Waters Dunrovin Sid 3 12:42:33 16.7, 10.9, 10.5, 14.1 12.59 37, 41, 49, 51, 48 (Avg:47)
23 Alan Waters Dunrovin Shannon 4 12:42:34 16.7, 10.9, 10.5, 14.1 12.59 35, 40, 48, 47, 50 (Avg:46)
47 Paul Chandler Cyclone 5 12:44:48 20.6, 11.9, 10.2, 10.2 12.55 35, 42, 47, 54, 54 (Avg:49)
1 Scott Blackley Karleym 6 12:55:54 19.9, 12.1, 10.1, 9.8 12.37 36, 40, 46, 47, 52 (Avg:46)
45 Daphne Phillips Wongaburra Stranger 7 13:03:46 17.7, 11.3, 10.3, 10.9 12.25 42, 48, 56, 57, 55 (Avg:54)
36 Trevor Knight Oasis Desert Song 8 13:29:12 16.6, 11.9, 8.9, 11.7 11.86 30, 35, 43, 40, 44 (Avg:40)
39 Mark Freeman Cedar Ridge Rob Roy 9 13:33:00 18.2, 11.0, 10.3, 9.6 11.81 42, 50, 52, 50, 45 (Avg:49)
30 Trevor Deudney Cobber Jack 10 14:07:35 17.5, 11.5, 9.4, 8.7 11.33 36, 48, 52, 57, 49 (Avg:51)
33 Fred Holland(Bvsc) Cedar 11 14:28:07 15.4, 11.2, 8.6, 10.2 11.06 38, 46, 54, 52, 44 (Avg:49)
41 Alan Mackinder Charlie 12 14:51:00 14.8, 9.9, 9.1, 10.1 10.77 32, 41, 42, 44, 48 (Avg:43)
13 Betty Serpell Faraway Daalko 13 14:59:15 15.8, 9.8, 8.6, 10.1 10.68 32, 40, 44, 44, 54 (Avg:45)
24 Jenny Oliver Hazeldean Mcmillan 14 15:05:07 14.8, 10.2, 8.4, 10.1 10.61 45, 44, 57, 52, 59 (Avg:53)
15 Rosemary Huntley Just A Mare 15 15:05:08 16.5, 9.8, 8.3, 9.9 10.61 38, 39, 47, 45, 58 (Avg:47)
29 Janet(E) Rose Missie 16 15:09:16 14.4, 9.8, 8.8, 10.1 10.56 38, 48, 49, 42, 43 (Avg:45)
37 Patsie Manning Juanita 17 15:29:23 14.8, 9.6, 8.0, 10.6 10.33 32, 34, 38, 36, 44 (Avg:38)
49 Sally Cowan Junior 18 15:52:44 15.8, 9.6, 8.4, 8.2 10.08 44, 42, 50, 52, 53 (Avg:49)
46 John Ailmore Warrondi Beercan 19 17:39:25 14.4, 9.1, 6.9, 7.8 9.06 40, 41, 49, 56, 54 (Avg:50)
16 Ruth Bavistock Werocata Ibrafan 19 17:39:25 14.4, 9.1, 6.9, 7.7 9.06 40, 44, 50, 49, 46 (Avg:47)
43 Ron Males Ralvon Focus 19 17:39:25 14.4, 8.7, 7.2, 7.8 9.06 40, 48, 56, 55, 55 (Avg:53)
38 Jenny Sandford Peri 19 17:39:25 16.4, 10.0, 6.2, 7.3 9.06 40, 44, 54, 56, 52 (Avg:51)
44 Sally Griffin Logie Brae Hassan Heart Rate L4 0:00:00 20.9, 13.8, 8.7, 8.3 - 39, 43, 58, 51, 65 (Avg:54)
9 Terri Chandler Tarkhim Shar Johar Lame L3 0:00:00 19.2, 12.4, 10.2 - 36, 44, 52, 55 (Avg:50)
3 Leslie R. Coyle Belle Lame L3 0:00:00 16.0, 10.2, 8.8 - 45, 45, 56, 51 (Avg:50)
8 Kim Crawley Walhall Silver Star Lame L3 0:00:00 16.3, 9.0, 7.0 - 36, 36, 42, 41 (Avg:39)
12 Linda Doyle Monty Heart Rate L3 0:00:00 21.7, 13.5, 10.0 - 36, 37, 46, 72 (Avg:51)
31 Howard Harris Ralvon Lymon Lame L3 0:00:00 20.6, 11.9, 11.3 - 46, 52, 55, 50 (Avg:52)
34 Alan Lindsay Burremah Djerribindo Lame L3 0:00:00 16.4, 11.1, 11.2 - 34, 35, 47, 42 (Avg:41)
20 Beverley Wilson Arabian Park Flash Lame L3 0:00:00 19.2, 12.4, 10.2 - 32, 40, 45, 46 (Avg:43)
32 Terry Wood Andarra Shareef Lame L3 0:00:00 21.7, 13.6, 10.3 - 40, 45, 54, 55 (Avg:51)
54 Bernie Harris Warrondi Dione Lame L2 0:00:00 21.7, 11.3 - 31, 40, 57 (Avg:48)
52 Vivian Hollins Belhaven Goldie Girl Lame L2 0:00:00 14.3, 9.7 - 36, 40, 52 (Avg:46)
27 Searle Johnston Shinda Heart Rate L2 0:00:00 16.4, 9.9 - 36, 43, 65 (Avg:54)
17 Terry Maher Ralvon Loyalty Heart Rate L2 0:00:00 14.9, 9.5 - 40, 42, 76 (Avg:59)
51 Terry May Barney Lame L2 0:00:00 14.3, 9.6 - 34, 40, 53 (Avg:46)
7 Shane Mcphillips Captain Moonlight Withdrawn L2 0:00:00 - - 39, 41, 45 (Avg:43)
21 Michael Menzel Man Friday Lame L2 0:00:00 17.5, 10.3 - 36, 40, 49 (Avg:44)
53 June Petersen Tequila Lame L2 0:00:00 16.8, 10.8 - 30, 38, 43 (Avg:40)
25 Wilma Roche Robaire Grey Kamil Lame L2 0:00:00 16.5, 9.8 - 43, 50, 54 (Avg:52)
11 Darren Slattery Conradclo Heart Rate L2 0:00:00 20.9, 11.7 - 32, 46, 66 (Avg:56)
40 Arthur Waghorn Sanroblee Doug Heart Rate L2 0:00:00 15.3, 9.4 - 40, 50, 70 (Avg:60)
18 Stephanie Brinkworth Sting Gall or injury L1 0:00:00 14.4 - 34, 49 (Avg:49)
19 Hugh Kraeft Ralvon Trojan Lame L1 0:00:00 14.3 - 39, 46 (Avg:46)
50 Louise Lewis Tara Two Lame L1 0:00:00 19.2 - 28, 33 (Avg:33)
5 David Marshall Dunwingeri St Nicholas Lame L1 0:00:00 20.9 - 32, 49 (Avg:49)
26 Don Mckillop Darvel Kalim Withdrawn L1 0:00:00 - - 42, 42 (Avg:42)
28 Judy Shore Summerland Robreyn Out of Time L1 0:00:00 14.4 - 43, 44 (Avg:44)
6 Rebecca Smith Aragon Strider Heart Rate L1 0:00:00 15.9 - 38, 60 (Avg:60)
14 Marianne Van der Ham Cherokee Persian Chief Heart Rate L1 0:00:00 13.7 - 34, 62 (Avg:62)
10 Gordon Whittaker Tristram Nero Lame L1 0:00:00 18.0 - 32, 44 (Avg:44)
Lightweight
35 Helen Rutland-Skinner Balfron Marbella 1 13:29:11 16.6, 11.9, 8.9, 11.7 11.86 30, 38, 41, 40, 43 (Avg:40)
48 Richard Pollard Silver Sheik Lame L2 0:00:00 18.0, 9.8 - 33, 39, 41 (Avg:40)
4 Cathryn Deudney Kiwi Lame L1 0:00:00 16.4 - 34, 46 (Avg:46)